sensor_id;sensor_type;location;lat;lon;timestamp;P1;durP1;ratioP1;P2;durP2;ratioP2
53108;SDS011;39007;53.090;6.074;2023-03-11T00:00:10;11.40;;;2.30;;
53108;SDS011;39007;53.090;6.074;2023-03-11T00:02:43;6.72;;;1.77;;
53108;SDS011;39007;53.090;6.074;2023-03-11T00:05:20;9.27;;;2.20;;
53108;SDS011;39007;53.090;6.074;2023-03-11T00:07:48;13.45;;;1.63;;
53108;SDS011;39007;53.090;6.074;2023-03-11T00:10:15;11.80;;;2.22;;
53108;SDS011;39007;53.090;6.074;2023-03-11T00:12:42;8.07;;;1.70;;
53108;SDS011;39007;53.090;6.074;2023-03-11T00:15:08;7.25;;;1.95;;
53108;SDS011;39007;53.090;6.074;2023-03-11T00:17:34;5.97;;;1.60;;
53108;SDS011;39007;53.090;6.074;2023-03-11T00:20:00;9.65;;;1.77;;
53108;SDS011;39007;53.090;6.074;2023-03-11T00:22:26;7.47;;;1.55;;
53108;SDS011;39007;53.090;6.074;2023-03-11T00:24:52;10.30;;;1.73;;
53108;SDS011;39007;53.090;6.074;2023-03-11T00:27:19;7.20;;;1.60;;
53108;SDS011;39007;53.090;6.074;2023-03-11T00:29:45;7.72;;;1.70;;
53108;SDS011;39007;53.090;6.074;2023-03-11T00:32:11;10.25;;;2.03;;
53108;SDS011;39007;53.090;6.074;2023-03-11T00:34:37;11.60;;;1.92;;
53108;SDS011;39007;53.090;6.074;2023-03-11T00:37:03;5.70;;;1.50;;
53108;SDS011;39007;53.090;6.074;2023-03-11T00:39:29;6.75;;;1.40;;
53108;SDS011;39007;53.090;6.074;2023-03-11T00:41:55;11.52;;;1.92;;
53108;SDS011;39007;53.090;6.074;2023-03-11T00:44:21;5.63;;;1.50;;
53108;SDS011;39007;53.090;6.074;2023-03-11T00:46:47;6.60;;;1.65;;
53108;SDS011;39007;53.090;6.074;2023-03-11T00:49:13;10.02;;;1.67;;
53108;SDS011;39007;53.090;6.074;2023-03-11T00:51:40;10.48;;;1.92;;
53108;SDS011;39007;53.090;6.074;2023-03-11T00:54:06;8.93;;;1.80;;
53108;SDS011;39007;53.090;6.074;2023-03-11T00:56:32;7.47;;;1.75;;
53108;SDS011;39007;53.090;6.074;2023-03-11T00:58:58;10.27;;;1.60;;
53108;SDS011;39007;53.090;6.074;2023-03-11T01:01:24;6.47;;;1.70;;
53108;SDS011;39007;53.090;6.074;2023-03-11T01:03:50;5.72;;;1.65;;
53108;SDS011;39007;53.090;6.074;2023-03-11T01:06:16;9.95;;;2.55;;
53108;SDS011;39007;53.090;6.074;2023-03-11T01:08:42;6.95;;;1.70;;
53108;SDS011;39007;53.090;6.074;2023-03-11T01:11:08;6.53;;;1.58;;
53108;SDS011;39007;53.090;6.074;2023-03-11T01:13:35;5.82;;;1.60;;
53108;SDS011;39007;53.090;6.074;2023-03-11T01:16:01;9.10;;;1.80;;
53108;SDS011;39007;53.090;6.074;2023-03-11T01:18:27;6.50;;;1.48;;
53108;SDS011;39007;53.090;6.074;2023-03-11T01:20:53;5.28;;;1.70;;
53108;SDS011;39007;53.090;6.074;2023-03-11T01:23:20;9.57;;;1.95;;
53108;SDS011;39007;53.090;6.074;2023-03-11T01:25:46;6.68;;;1.60;;
53108;SDS011;39007;53.090;6.074;2023-03-11T01:28:12;6.80;;;1.58;;
53108;SDS011;39007;53.090;6.074;2023-03-11T01:30:39;5.03;;;1.55;;
53108;SDS011;39007;53.090;6.074;2023-03-11T01:33:06;7.28;;;1.88;;
53108;SDS011;39007;53.090;6.074;2023-03-11T01:35:33;6.18;;;1.55;;
53108;SDS011;39007;53.090;6.074;2023-03-11T01:37:59;5.47;;;1.45;;
53108;SDS011;39007;53.090;6.074;2023-03-11T01:42:52;3.92;;;1.42;;
53108;SDS011;39007;53.090;6.074;2023-03-11T01:48:03;6.38;;;1.52;;
53108;SDS011;39007;53.090;6.074;2023-03-11T01:50:37;5.28;;;1.67;;
53108;SDS011;39007;53.090;6.074;2023-03-11T01:53:04;10.25;;;1.73;;
53108;SDS011;39007;53.090;6.074;2023-03-11T01:55:31;6.13;;;1.60;;
53108;SDS011;39007;53.090;6.074;2023-03-11T01:57:58;8.23;;;1.75;;
53108;SDS011;39007;53.090;6.074;2023-03-11T02:00:24;3.95;;;1.40;;
53108;SDS011;39007;53.090;6.074;2023-03-11T02:02:51;8.02;;;1.55;;
53108;SDS011;39007;53.090;6.074;2023-03-11T02:05:22;10.50;;;1.75;;
53108;SDS011;39007;53.090;6.074;2023-03-11T02:07:49;6.38;;;1.50;;
53108;SDS011;39007;53.090;6.074;2023-03-11T02:10:15;7.93;;;1.75;;
53108;SDS011;39007;53.090;6.074;2023-03-11T02:12:42;6.13;;;1.60;;
53108;SDS011;39007;53.090;6.074;2023-03-11T02:15:09;6.85;;;1.40;;
53108;SDS011;39007;53.090;6.074;2023-03-11T02:17:35;5.78;;;1.50;;
53108;SDS011;39007;53.090;6.074;2023-03-11T02:22:31;4.95;;;1.60;;
53108;SDS011;39007;53.090;6.074;2023-03-11T02:25:00;4.68;;;1.52;;
53108;SDS011;39007;53.090;6.074;2023-03-11T02:27:28;4.60;;;1.60;;
53108;SDS011;39007;53.090;6.074;2023-03-11T02:29:56;5.55;;;1.60;;
53108;SDS011;39007;53.090;6.074;2023-03-11T02:32:23;8.07;;;1.67;;
53108;SDS011;39007;53.090;6.074;2023-03-11T02:34:50;5.43;;;1.63;;
53108;SDS011;39007;53.090;6.074;2023-03-11T02:37:16;6.38;;;1.75;;
53108;SDS011;39007;53.090;6.074;2023-03-11T02:39:46;6.07;;;1.60;;
53108;SDS011;39007;53.090;6.074;2023-03-11T02:42:14;6.55;;;1.80;;
53108;SDS011;39007;53.090;6.074;2023-03-11T02:44:42;6.07;;;1.45;;
53108;SDS011;39007;53.090;6.074;2023-03-11T02:47:08;8.82;;;1.60;;
53108;SDS011;39007;53.090;6.074;2023-03-11T02:49:35;6.60;;;1.60;;
53108;SDS011;39007;53.090;6.074;2023-03-11T02:52:01;4.32;;;1.40;;
53108;SDS011;39007;53.090;6.074;2023-03-11T02:54:27;6.15;;;1.48;;
53108;SDS011;39007;53.090;6.074;2023-03-11T02:56:53;5.05;;;1.92;;
53108;SDS011;39007;53.090;6.074;2023-03-11T02:59:20;5.75;;;1.65;;
53108;SDS011;39007;53.090;6.074;2023-03-11T03:01:46;7.50;;;1.67;;
53108;SDS011;39007;53.090;6.074;2023-03-11T03:04:12;5.93;;;1.83;;
53108;SDS011;39007;53.090;6.074;2023-03-11T03:06:38;5.32;;;1.60;;
53108;SDS011;39007;53.090;6.074;2023-03-11T03:09:04;5.88;;;1.88;;
53108;SDS011;39007;53.090;6.074;2023-03-11T03:11:30;4.68;;;1.58;;
53108;SDS011;39007;53.090;6.074;2023-03-11T03:13:56;5.68;;;1.50;;
53108;SDS011;39007;53.090;6.074;2023-03-11T03:16:22;9.05;;;1.70;;
53108;SDS011;39007;53.090;6.074;2023-03-11T03:18:48;5.57;;;1.60;;
53108;SDS011;39007;53.090;6.074;2023-03-11T03:21:15;7.90;;;1.80;;
53108;SDS011;39007;53.090;6.074;2023-03-11T03:23:41;4.40;;;1.40;;
53108;SDS011;39007;53.090;6.074;2023-03-11T03:26:11;9.70;;;2.13;;
53108;SDS011;39007;53.090;6.074;2023-03-11T03:28:37;5.88;;;1.70;;
53108;SDS011;39007;53.090;6.074;2023-03-11T03:31:04;6.22;;;1.77;;
53108;SDS011;39007;53.090;6.074;2023-03-11T03:33:30;5.40;;;1.60;;
53108;SDS011;39007;53.090;6.074;2023-03-11T03:35:56;3.70;;;1.40;;
53108;SDS011;39007;53.090;6.074;2023-03-11T03:38:22;8.32;;;1.70;;
53108;SDS011;39007;53.090;6.074;2023-03-11T03:40:48;9.95;;;2.00;;
53108;SDS011;39007;53.090;6.074;2023-03-11T03:43:14;6.85;;;1.50;;
53108;SDS011;39007;53.090;6.074;2023-03-11T03:45:40;7.97;;;1.65;;
53108;SDS011;39007;53.090;6.074;2023-03-11T03:48:06;6.63;;;1.48;;
53108;SDS011;39007;53.090;6.074;2023-03-11T03:50:33;8.63;;;1.70;;
53108;SDS011;39007;53.090;6.074;2023-03-11T03:52:59;6.18;;;1.50;;
53108;SDS011;39007;53.090;6.074;2023-03-11T03:55:25;6.82;;;1.65;;
53108;SDS011;39007;53.090;6.074;2023-03-11T03:57:51;6.60;;;1.50;;
53108;SDS011;39007;53.090;6.074;2023-03-11T04:00:17;3.70;;;1.42;;
53108;SDS011;39007;53.090;6.074;2023-03-11T04:02:43;5.20;;;1.50;;
53108;SDS011;39007;53.090;6.074;2023-03-11T04:05:09;5.22;;;1.92;;
53108;SDS011;39007;53.090;6.074;2023-03-11T04:07:35;6.85;;;1.70;;
53108;SDS011;39007;53.090;6.074;2023-03-11T04:10:02;7.10;;;1.40;;
53108;SDS011;39007;53.090;6.074;2023-03-11T04:12:28;5.43;;;1.55;;
53108;SDS011;39007;53.090;6.074;2023-03-11T04:14:54;6.32;;;1.58;;
53108;SDS011;39007;53.090;6.074;2023-03-11T04:17:20;6.90;;;1.55;;
53108;SDS011;39007;53.090;6.074;2023-03-11T04:19:46;5.82;;;1.50;;
53108;SDS011;39007;53.090;6.074;2023-03-11T04:22:12;9.40;;;1.55;;
53108;SDS011;39007;53.090;6.074;2023-03-11T04:24:38;4.03;;;1.20;;
53108;SDS011;39007;53.090;6.074;2023-03-11T04:27:04;8.57;;;1.40;;
53108;SDS011;39007;53.090;6.074;2023-03-11T04:29:30;6.65;;;1.58;;
53108;SDS011;39007;53.090;6.074;2023-03-11T04:31:56;4.72;;;1.55;;
53108;SDS011;39007;53.090;6.074;2023-03-11T04:34:22;4.00;;;1.33;;
53108;SDS011;39007;53.090;6.074;2023-03-11T04:36:52;4.90;;;1.10;;
53108;SDS011;39007;53.090;6.074;2023-03-11T04:39:18;4.38;;;1.50;;
53108;SDS011;39007;53.090;6.074;2023-03-11T04:41:45;9.32;;;1.70;;
53108;SDS011;39007;53.090;6.074;2023-03-11T04:44:11;5.35;;;1.50;;
53108;SDS011;39007;53.090;6.074;2023-03-11T04:46:37;5.90;;;1.38;;
53108;SDS011;39007;53.090;6.074;2023-03-11T04:49:03;5.97;;;1.60;;
53108;SDS011;39007;53.090;6.074;2023-03-11T04:51:29;6.70;;;1.50;;
53108;SDS011;39007;53.090;6.074;2023-03-11T04:53:55;7.18;;;1.70;;
53108;SDS011;39007;53.090;6.074;2023-03-11T04:56:21;5.78;;;1.58;;
53108;SDS011;39007;53.090;6.074;2023-03-11T04:58:47;7.97;;;1.80;;
53108;SDS011;39007;53.090;6.074;2023-03-11T05:01:13;4.05;;;1.50;;
53108;SDS011;39007;53.090;6.074;2023-03-11T05:03:39;4.43;;;1.40;;
53108;SDS011;39007;53.090;6.074;2023-03-11T05:06:06;4.32;;;1.40;;
53108;SDS011;39007;53.090;6.074;2023-03-11T05:08:32;5.25;;;1.50;;
53108;SDS011;39007;53.090;6.074;2023-03-11T05:10:58;6.22;;;1.90;;
53108;SDS011;39007;53.090;6.074;2023-03-11T05:13:24;5.35;;;1.50;;
53108;SDS011;39007;53.090;6.074;2023-03-11T05:15:50;4.82;;;1.48;;
53108;SDS011;39007;53.090;6.074;2023-03-11T05:18:16;6.28;;;1.63;;
53108;SDS011;39007;53.090;6.074;2023-03-11T05:20:42;7.35;;;2.00;;
53108;SDS011;39007;53.090;6.074;2023-03-11T05:23:08;5.93;;;1.35;;
53108;SDS011;39007;53.090;6.074;2023-03-11T05:25:34;7.13;;;1.40;;
53108;SDS011;39007;53.090;6.074;2023-03-11T05:28:00;5.43;;;1.42;;
53108;SDS011;39007;53.090;6.074;2023-03-11T05:30:26;6.50;;;1.55;;
53108;SDS011;39007;53.090;6.074;2023-03-11T05:32:52;6.13;;;1.35;;
53108;SDS011;39007;53.090;6.074;2023-03-11T05:35:20;6.25;;;1.63;;
53108;SDS011;39007;53.090;6.074;2023-03-11T05:37:46;3.25;;;1.10;;
53108;SDS011;39007;53.090;6.074;2023-03-11T05:40:14;3.97;;;1.35;;
53108;SDS011;39007;53.090;6.074;2023-03-11T05:42:40;9.13;;;1.80;;
53108;SDS011;39007;53.090;6.074;2023-03-11T05:45:07;5.50;;;1.33;;
53108;SDS011;39007;53.090;6.074;2023-03-11T05:47:33;9.55;;;1.50;;
53108;SDS011;39007;53.090;6.074;2023-03-11T05:49:59;6.97;;;1.52;;
53108;SDS011;39007;53.090;6.074;2023-03-11T05:52:26;4.65;;;1.48;;
53108;SDS011;39007;53.090;6.074;2023-03-11T05:54:52;5.05;;;1.52;;
53108;SDS011;39007;53.090;6.074;2023-03-11T05:57:18;4.07;;;1.40;;
53108;SDS011;39007;53.090;6.074;2023-03-11T05:59:44;6.95;;;1.55;;
53108;SDS011;39007;53.090;6.074;2023-03-11T06:02:10;4.10;;;1.15;;
53108;SDS011;39007;53.090;6.074;2023-03-11T06:04:37;4.78;;;1.30;;
53108;SDS011;39007;53.090;6.074;2023-03-11T06:07:03;7.38;;;1.38;;
53108;SDS011;39007;53.090;6.074;2023-03-11T06:09:29;4.60;;;1.50;;
53108;SDS011;39007;53.090;6.074;2023-03-11T06:11:55;5.43;;;1.35;;
53108;SDS011;39007;53.090;6.074;2023-03-11T06:14:21;10.18;;;1.42;;
53108;SDS011;39007;53.090;6.074;2023-03-11T06:16:47;4.88;;;1.55;;
53108;SDS011;39007;53.090;6.074;2023-03-11T06:19:13;4.65;;;1.30;;
53108;SDS011;39007;53.090;6.074;2023-03-11T06:21:39;3.90;;;1.40;;
53108;SDS011;39007;53.090;6.074;2023-03-11T06:24:06;6.90;;;1.70;;
53108;SDS011;39007;53.090;6.074;2023-03-11T06:26:32;6.07;;;1.40;;
53108;SDS011;39007;53.090;6.074;2023-03-11T06:28:58;6.32;;;1.45;;
53108;SDS011;39007;53.090;6.074;2023-03-11T06:31:25;11.55;;;1.90;;
53108;SDS011;39007;53.090;6.074;2023-03-11T06:33:52;5.57;;;1.40;;
53108;SDS011;39007;53.090;6.074;2023-03-11T06:36:20;4.85;;;1.50;;
53108;SDS011;39007;53.090;6.074;2023-03-11T06:38:46;5.82;;;1.75;;
53108;SDS011;39007;53.090;6.074;2023-03-11T06:41:14;5.43;;;1.52;;
53108;SDS011;39007;53.090;6.074;2023-03-11T06:43:40;4.68;;;1.40;;
53108;SDS011;39007;53.090;6.074;2023-03-11T06:46:07;6.72;;;1.90;;
53108;SDS011;39007;53.090;6.074;2023-03-11T06:48:33;3.83;;;1.40;;
53108;SDS011;39007;53.090;6.074;2023-03-11T06:51:00;4.95;;;1.58;;
53108;SDS011;39007;53.090;6.074;2023-03-11T06:53:26;8.73;;;1.70;;
53108;SDS011;39007;53.090;6.074;2023-03-11T06:55:56;5.25;;;1.67;;
53108;SDS011;39007;53.090;6.074;2023-03-11T06:58:22;6.55;;;2.03;;
53108;SDS011;39007;53.090;6.074;2023-03-11T07:00:48;7.65;;;1.73;;
53108;SDS011;39007;53.090;6.074;2023-03-11T07:03:14;7.18;;;1.70;;
53108;SDS011;39007;53.090;6.074;2023-03-11T07:05:40;7.80;;;1.75;;
53108;SDS011;39007;53.090;6.074;2023-03-11T07:08:07;7.90;;;2.22;;
53108;SDS011;39007;53.090;6.074;2023-03-11T07:10:33;7.70;;;1.92;;
53108;SDS011;39007;53.090;6.074;2023-03-11T07:12:59;5.80;;;1.70;;
53108;SDS011;39007;53.090;6.074;2023-03-11T07:15:25;4.10;;;1.73;;
53108;SDS011;39007;53.090;6.074;2023-03-11T07:17:51;8.07;;;2.55;;
53108;SDS011;39007;53.090;6.074;2023-03-11T07:20:17;7.22;;;1.70;;
53108;SDS011;39007;53.090;6.074;2023-03-11T07:22:43;6.43;;;1.73;;
53108;SDS011;39007;53.090;6.074;2023-03-11T07:25:10;6.70;;;1.88;;
53108;SDS011;39007;53.090;6.074;2023-03-11T07:27:36;7.80;;;2.00;;
53108;SDS011;39007;53.090;6.074;2023-03-11T07:30:02;8.35;;;1.70;;
53108;SDS011;39007;53.090;6.074;2023-03-11T07:32:28;8.35;;;2.00;;
53108;SDS011;39007;53.090;6.074;2023-03-11T07:34:54;5.18;;;2.05;;
53108;SDS011;39007;53.090;6.074;2023-03-11T07:37:20;5.53;;;1.80;;
53108;SDS011;39007;53.090;6.074;2023-03-11T07:39:46;6.05;;;1.73;;
53108;SDS011;39007;53.090;6.074;2023-03-11T07:42:12;6.15;;;1.75;;
53108;SDS011;39007;53.090;6.074;2023-03-11T07:44:38;7.32;;;1.77;;
53108;SDS011;39007;53.090;6.074;2023-03-11T07:47:04;8.82;;;2.10;;
53108;SDS011;39007;53.090;6.074;2023-03-11T07:49:30;5.65;;;1.98;;
53108;SDS011;39007;53.090;6.074;2023-03-11T07:51:57;10.00;;;2.28;;
53108;SDS011;39007;53.090;6.074;2023-03-11T07:54:23;9.55;;;2.00;;
53108;SDS011;39007;53.090;6.074;2023-03-11T07:56:49;4.68;;;2.00;;
53108;SDS011;39007;53.090;6.074;2023-03-11T07:59:15;9.23;;;2.13;;
53108;SDS011;39007;53.090;6.074;2023-03-11T08:01:41;8.57;;;2.10;;
53108;SDS011;39007;53.090;6.074;2023-03-11T08:04:11;5.82;;;1.98;;
53108;SDS011;39007;53.090;6.074;2023-03-11T08:06:37;8.32;;;2.00;;
53108;SDS011;39007;53.090;6.074;2023-03-11T08:09:05;7.38;;;2.08;;
53108;SDS011;39007;53.090;6.074;2023-03-11T08:11:32;8.63;;;2.03;;
53108;SDS011;39007;53.090;6.074;2023-03-11T08:13:58;7.25;;;1.88;;
53108;SDS011;39007;53.090;6.074;2023-03-11T08:16:25;9.32;;;2.17;;
53108;SDS011;39007;53.090;6.074;2023-03-11T08:18:51;11.13;;;1.95;;
53108;SDS011;39007;53.090;6.074;2023-03-11T08:21:19;7.05;;;2.10;;
53108;SDS011;39007;53.090;6.074;2023-03-11T08:23:46;9.13;;;1.98;;
53108;SDS011;39007;53.090;6.074;2023-03-11T08:26:13;5.63;;;2.00;;
53108;SDS011;39007;53.090;6.074;2023-03-11T08:28:39;5.47;;;2.08;;
53108;SDS011;39007;53.090;6.074;2023-03-11T08:31:16;8.15;;;2.28;;
53108;SDS011;39007;53.090;6.074;2023-03-11T08:33:43;11.93;;;2.50;;
53108;SDS011;39007;53.090;6.074;2023-03-11T08:36:09;10.27;;;2.53;;
53108;SDS011;39007;53.090;6.074;2023-03-11T08:38:35;9.40;;;2.50;;
53108;SDS011;39007;53.090;6.074;2023-03-11T08:41:01;10.48;;;2.45;;
53108;SDS011;39007;53.090;6.074;2023-03-11T08:43:27;8.05;;;2.42;;
53108;SDS011;39007;53.090;6.074;2023-03-11T08:45:53;5.20;;;2.30;;
53108;SDS011;39007;53.090;6.074;2023-03-11T08:48:19;8.88;;;2.00;;
53108;SDS011;39007;53.090;6.074;2023-03-11T08:50:47;10.05;;;2.15;;
53108;SDS011;39007;53.090;6.074;2023-03-11T08:53:13;8.40;;;2.35;;
53108;SDS011;39007;53.090;6.074;2023-03-11T08:55:39;7.18;;;2.00;;
53108;SDS011;39007;53.090;6.074;2023-03-11T08:58:05;15.80;;;2.65;;
53108;SDS011;39007;53.090;6.074;2023-03-11T09:00:31;9.98;;;2.28;;
53108;SDS011;39007;53.090;6.074;2023-03-11T09:02:58;6.75;;;2.30;;
53108;SDS011;39007;53.090;6.074;2023-03-11T09:05:24;7.93;;;2.50;;
53108;SDS011;39007;53.090;6.074;2023-03-11T09:07:50;12.05;;;2.95;;
53108;SDS011;39007;53.090;6.074;2023-03-11T09:10:16;8.48;;;2.67;;
53108;SDS011;39007;53.090;6.074;2023-03-11T09:12:42;13.23;;;2.60;;
53108;SDS011;39007;53.090;6.074;2023-03-11T09:15:08;9.07;;;2.50;;
53108;SDS011;39007;53.090;6.074;2023-03-11T09:17:35;8.32;;;2.60;;
53108;SDS011;39007;53.090;6.074;2023-03-11T09:20:01;10.65;;;2.50;;
53108;SDS011;39007;53.090;6.074;2023-03-11T09:22:28;15.18;;;2.40;;
53108;SDS011;39007;53.090;6.074;2023-03-11T09:24:54;6.25;;;2.35;;
53108;SDS011;39007;53.090;6.074;2023-03-11T09:27:21;8.00;;;2.25;;
53108;SDS011;39007;53.090;6.074;2023-03-11T09:29:47;11.93;;;3.10;;
53108;SDS011;39007;53.090;6.074;2023-03-11T09:32:13;9.30;;;2.20;;
53108;SDS011;39007;53.090;6.074;2023-03-11T09:34:39;7.93;;;2.10;;
53108;SDS011;39007;53.090;6.074;2023-03-11T09:37:06;8.23;;;2.35;;
53108;SDS011;39007;53.090;6.074;2023-03-11T09:39:32;7.68;;;2.20;;
53108;SDS011;39007;53.090;6.074;2023-03-11T09:42:02;11.77;;;2.22;;
53108;SDS011;39007;53.090;6.074;2023-03-11T09:47:14;8.27;;;3.17;;
53108;SDS011;39007;53.090;6.074;2023-03-11T09:52:38;9.20;;;1.90;;
53108;SDS011;39007;53.090;6.074;2023-03-11T09:55:06;10.48;;;2.17;;
53108;SDS011;39007;53.090;6.074;2023-03-11T09:57:38;8.93;;;2.17;;
53108;SDS011;39007;53.090;6.074;2023-03-11T10:00:05;6.93;;;2.05;;
53108;SDS011;39007;53.090;6.074;2023-03-11T10:02:31;8.00;;;2.17;;
53108;SDS011;39007;53.090;6.074;2023-03-11T10:04:59;7.60;;;2.08;;
53108;SDS011;39007;53.090;6.074;2023-03-11T10:07:34;8.75;;;2.10;;
53108;SDS011;39007;53.090;6.074;2023-03-11T10:10:01;6.07;;;2.40;;
53108;SDS011;39007;53.090;6.074;2023-03-11T10:20:09;11.20;;;2.30;;
53108;SDS011;39007;53.090;6.074;2023-03-11T10:25:24;9.13;;;2.30;;
53108;SDS011;39007;53.090;6.074;2023-03-11T10:27:53;8.23;;;1.92;;
53108;SDS011;39007;53.090;6.074;2023-03-11T10:30:37;7.72;;;2.65;;
53108;SDS011;39007;53.090;6.074;2023-03-11T10:33:06;8.52;;;2.33;;
53108;SDS011;39007;53.090;6.074;2023-03-11T10:35:37;14.85;;;2.45;;
53108;SDS011;39007;53.090;6.074;2023-03-11T10:38:14;14.23;;;2.45;;
53108;SDS011;39007;53.090;6.074;2023-03-11T10:40:42;7.25;;;1.92;;
53108;SDS011;39007;53.090;6.074;2023-03-11T10:43:10;13.93;;;2.53;;
53108;SDS011;39007;53.090;6.074;2023-03-11T10:45:39;13.02;;;2.25;;
53108;SDS011;39007;53.090;6.074;2023-03-11T10:48:09;12.65;;;2.53;;
53108;SDS011;39007;53.090;6.074;2023-03-11T10:50:35;8.75;;;2.00;;
53108;SDS011;39007;53.090;6.074;2023-03-11T10:53:09;6.22;;;1.75;;
53108;SDS011;39007;53.090;6.074;2023-03-11T10:55:36;11.50;;;2.03;;
53108;SDS011;39007;53.090;6.074;2023-03-11T10:58:14;7.65;;;1.73;;
53108;SDS011;39007;53.090;6.074;2023-03-11T11:00:40;6.57;;;1.70;;
53108;SDS011;39007;53.090;6.074;2023-03-11T11:03:28;12.00;;;2.20;;
53108;SDS011;39007;53.090;6.074;2023-03-11T11:05:57;7.40;;;1.88;;
53108;SDS011;39007;53.090;6.074;2023-03-11T11:08:24;5.43;;;1.80;;
53108;SDS011;39007;53.090;6.074;2023-03-11T11:10:51;8.40;;;2.17;;
53108;SDS011;39007;53.090;6.074;2023-03-11T11:13:19;8.52;;;1.90;;
53108;SDS011;39007;53.090;6.074;2023-03-11T11:18:28;8.98;;;2.05;;
53108;SDS011;39007;53.090;6.074;2023-03-11T11:23:25;7.97;;;1.90;;
53108;SDS011;39007;53.090;6.074;2023-03-11T11:25:59;6.65;;;1.70;;
53108;SDS011;39007;53.090;6.074;2023-03-11T11:28:26;6.57;;;1.73;;
53108;SDS011;39007;53.090;6.074;2023-03-11T11:30:54;11.88;;;2.47;;
53108;SDS011;39007;53.090;6.074;2023-03-11T11:33:21;9.35;;;1.90;;
53108;SDS011;39007;53.090;6.074;2023-03-11T11:35:49;9.65;;;1.80;;
53108;SDS011;39007;53.090;6.074;2023-03-11T11:38:16;6.10;;;1.70;;
53108;SDS011;39007;53.090;6.074;2023-03-11T11:40:42;8.45;;;1.88;;
53108;SDS011;39007;53.090;6.074;2023-03-11T11:43:13;9.88;;;2.08;;
53108;SDS011;39007;53.090;6.074;2023-03-11T11:45:56;6.95;;;2.05;;
53108;SDS011;39007;53.090;6.074;2023-03-11T11:49:10;8.27;;;1.80;;
53108;SDS011;39007;53.090;6.074;2023-03-11T11:51:24;6.82;;;1.90;;
53108;SDS011;39007;53.090;6.074;2023-03-11T11:56:22;10.40;;;2.03;;
53108;SDS011;39007;53.090;6.074;2023-03-11T11:58:49;7.50;;;1.80;;
53108;SDS011;39007;53.090;6.074;2023-03-11T12:01:29;5.25;;;1.60;;
53108;SDS011;39007;53.090;6.074;2023-03-11T12:04:02;10.25;;;2.03;;
53108;SDS011;39007;53.090;6.074;2023-03-11T12:14:16;5.68;;;1.77;;
53108;SDS011;39007;53.090;6.074;2023-03-11T12:19:22;6.68;;;1.55;;
53108;SDS011;39007;53.090;6.074;2023-03-11T12:21:55;6.35;;;1.60;;
53108;SDS011;39007;53.090;6.074;2023-03-11T12:27:04;6.70;;;1.75;;
53108;SDS011;39007;53.090;6.074;2023-03-11T12:29:42;7.43;;;1.95;;
53108;SDS011;39007;53.090;6.074;2023-03-11T12:32:17;7.60;;;2.08;;
53108;SDS011;39007;53.090;6.074;2023-03-11T12:34:45;5.68;;;1.55;;
53108;SDS011;39007;53.090;6.074;2023-03-11T12:37:12;4.95;;;1.65;;
53108;SDS011;39007;53.090;6.074;2023-03-11T12:39:40;5.35;;;1.40;;
53108;SDS011;39007;53.090;6.074;2023-03-11T12:44:39;7.75;;;1.80;;
53108;SDS011;39007;53.090;6.074;2023-03-11T12:49:44;5.13;;;1.60;;
53108;SDS011;39007;53.090;6.074;2023-03-11T12:54:47;9.50;;;1.65;;
53108;SDS011;39007;53.090;6.074;2023-03-11T13:07:53;7.35;;;1.75;;
53108;SDS011;39007;53.090;6.074;2023-03-11T13:10:32;9.50;;;1.67;;
53108;SDS011;39007;53.090;6.074;2023-03-11T13:13:00;7.70;;;1.60;;
53108;SDS011;39007;53.090;6.074;2023-03-11T13:15:32;7.82;;;1.63;;
53108;SDS011;39007;53.090;6.074;2023-03-11T13:25:39;6.20;;;1.48;;
53108;SDS011;39007;53.090;6.074;2023-03-11T13:30:42;5.27;;;1.57;;
53108;SDS011;39007;53.090;6.074;2023-03-11T13:41:10;4.75;;;1.60;;
53108;SDS011;39007;53.090;6.074;2023-03-11T13:43:41;7.75;;;1.67;;
53108;SDS011;39007;53.090;6.074;2023-03-11T13:48:44;9.43;;;1.60;;
53108;SDS011;39007;53.090;6.074;2023-03-11T13:53:46;8.70;;;1.98;;
53108;SDS011;39007;53.090;6.074;2023-03-11T13:56:15;6.35;;;1.70;;
53108;SDS011;39007;53.090;6.074;2023-03-11T13:58:42;6.93;;;1.60;;
53108;SDS011;39007;53.090;6.074;2023-03-11T14:01:09;5.55;;;1.50;;
53108;SDS011;39007;53.090;6.074;2023-03-11T14:03:40;6.30;;;1.60;;
53108;SDS011;39007;53.090;6.074;2023-03-11T14:06:07;7.68;;;2.08;;
53108;SDS011;39007;53.090;6.074;2023-03-11T14:08:34;7.38;;;2.03;;
53108;SDS011;39007;53.090;6.074;2023-03-11T14:11:02;6.85;;;1.60;;
53108;SDS011;39007;53.090;6.074;2023-03-11T14:13:29;6.63;;;1.70;;
53108;SDS011;39007;53.090;6.074;2023-03-11T14:16:06;7.95;;;1.60;;
53108;SDS011;39007;53.090;6.074;2023-03-11T14:18:34;6.45;;;1.70;;
53108;SDS011;39007;53.090;6.074;2023-03-11T14:21:01;7.90;;;2.15;;
53108;SDS011;39007;53.090;6.074;2023-03-11T14:23:32;5.75;;;1.63;;
53108;SDS011;39007;53.090;6.074;2023-03-11T14:26:00;7.68;;;1.40;;
53108;SDS011;39007;53.090;6.074;2023-03-11T14:28:29;4.53;;;1.30;;
53108;SDS011;39007;53.090;6.074;2023-03-11T14:30:58;4.03;;;1.13;;
53108;SDS011;39007;53.090;6.074;2023-03-11T14:33:24;7.05;;;1.30;;
53108;SDS011;39007;53.090;6.074;2023-03-11T14:35:57;9.43;;;1.33;;
53108;SDS011;39007;53.090;6.074;2023-03-11T14:38:26;5.43;;;1.30;;
53108;SDS011;39007;53.090;6.074;2023-03-11T14:41:01;11.50;;;1.65;;
53108;SDS011;39007;53.090;6.074;2023-03-11T14:43:33;8.23;;;1.85;;
53108;SDS011;39007;53.090;6.074;2023-03-11T14:46:00;3.72;;;1.33;;
53108;SDS011;39007;53.090;6.074;2023-03-11T14:48:28;9.85;;;2.13;;
53108;SDS011;39007;53.090;6.074;2023-03-11T14:50:56;8.43;;;1.98;;
53108;SDS011;39007;53.090;6.074;2023-03-11T14:53:32;5.22;;;1.60;;
53108;SDS011;39007;53.090;6.074;2023-03-11T14:56:21;6.05;;;1.58;;
53108;SDS011;39007;53.090;6.074;2023-03-11T14:58:48;10.20;;;1.80;;
53108;SDS011;39007;53.090;6.074;2023-03-11T15:01:19;6.72;;;1.60;;
53108;SDS011;39007;53.090;6.074;2023-03-11T15:03:48;6.32;;;1.33;;
53108;SDS011;39007;53.090;6.074;2023-03-11T15:06:16;4.15;;;1.20;;
53108;SDS011;39007;53.090;6.074;2023-03-11T15:08:45;6.57;;;1.30;;
53108;SDS011;39007;53.090;6.074;2023-03-11T15:13:38;6.82;;;1.30;;
53108;SDS011;39007;53.090;6.074;2023-03-11T15:16:06;8.07;;;1.63;;
53108;SDS011;39007;53.090;6.074;2023-03-11T15:18:34;5.70;;;1.45;;
53108;SDS011;39007;53.090;6.074;2023-03-11T15:21:03;4.75;;;1.50;;
53108;SDS011;39007;53.090;6.074;2023-03-11T15:23:30;5.05;;;1.90;;
53108;SDS011;39007;53.090;6.074;2023-03-11T15:25:57;4.75;;;1.80;;
53108;SDS011;39007;53.090;6.074;2023-03-11T15:28:25;7.80;;;1.75;;
53108;SDS011;39007;53.090;6.074;2023-03-11T15:33:37;3.95;;;1.05;;
53108;SDS011;39007;53.090;6.074;2023-03-11T15:36:03;4.88;;;1.60;;
53108;SDS011;39007;53.090;6.074;2023-03-11T15:38:29;6.70;;;1.67;;
53108;SDS011;39007;53.090;6.074;2023-03-11T15:40:56;8.40;;;1.52;;
53108;SDS011;39007;53.090;6.074;2023-03-11T15:43:28;6.78;;;1.90;;
53108;SDS011;39007;53.090;6.074;2023-03-11T15:45:56;6.53;;;1.58;;
53108;SDS011;39007;53.090;6.074;2023-03-11T15:48:22;3.70;;;1.70;;
53108;SDS011;39007;53.090;6.074;2023-03-11T15:50:50;5.15;;;1.50;;
53108;SDS011;39007;53.090;6.074;2023-03-11T15:53:17;3.35;;;1.20;;
53108;SDS011;39007;53.090;6.074;2023-03-11T15:55:43;5.03;;;1.05;;
53108;SDS011;39007;53.090;6.074;2023-03-11T15:58:10;3.92;;;1.33;;
53108;SDS011;39007;53.090;6.074;2023-03-11T16:00:36;4.60;;;1.05;;
53108;SDS011;39007;53.090;6.074;2023-03-11T16:03:04;2.65;;;1.00;;
53108;SDS011;39007;53.090;6.074;2023-03-11T16:05:30;4.43;;;1.10;;
53108;SDS011;39007;53.090;6.074;2023-03-11T16:07:56;3.83;;;1.05;;
53108;SDS011;39007;53.090;6.074;2023-03-11T16:10:23;4.32;;;1.20;;
53108;SDS011;39007;53.090;6.074;2023-03-11T16:12:49;2.47;;;1.17;;
53108;SDS011;39007;53.090;6.074;2023-03-11T16:17:46;1.88;;;0.80;;
53108;SDS011;39007;53.090;6.074;2023-03-11T16:20:13;4.47;;;1.50;;